Time;durP1;ratioP1;P1;durP2;ratioP2;P2;SDS_P1;SDS_P2;PMS_P1;PMS_P2;Temp;Humidity;BMP_temperature;BMP_pressure;BME280_temperature;BME280_humidity;BME280_pressure;Samples;Min_cycle;Max_cycle;Signal;HPM_P1;HPM_P2
2022/11/23 00:01:24;;;;;;;;;3.00;1.00;;;;;10.40;100.00;99671.97;5082437;27;45524;-77
2022/11/23 00:03:51;;;;;;;;;1.00;1.00;;;;;10.37;100.00;99661.44;5095468;27;45377;-76
2022/11/23 00:06:18;;;;;;;;;6.00;1.00;;;;;10.39;100.00;99670.22;5078251;27;45548;-77
2022/11/23 00:08:43;;;;;;;;;2.00;0.00;;;;;10.37;100.00;99664.94;5078461;27;47410;-77
2022/11/23 00:11:09;;;;;;;;;3.33;1.00;;;;;10.39;100.00;99670.22;5077736;27;45411;-77
2022/11/23 00:13:35;;;;;;;;;1.00;1.00;;;;;10.38;100.00;99666.69;5097005;27;45401;-77
2022/11/23 00:16:05;;;;;;;;;0.33;0.33;;;;;10.37;100.00;99670.22;5077962;27;45415;-77
2022/11/23 00:18:31;;;;;;;;;1.00;1.00;;;;;10.34;100.00;99662.34;5097159;27;46571;-78
2022/11/23 00:20:56;;;;;;;;;1.00;1.00;;;;;10.35;100.00;99668.50;5066889;27;45841;-76
2022/11/23 00:23:21;;;;;;;;;0.33;0.33;;;;;10.32;100.00;99669.38;5096525;27;58245;-77
2022/11/23 00:25:47;;;;;;;;;2.00;0.33;;;;;10.33;100.00;99679.03;5089651;27;63719;-77
2022/11/23 00:28:12;;;;;;;;;2.67;1.00;;;;;10.32;100.00;99676.41;5096893;27;46290;-77
2022/11/23 00:30:38;;;;;;;;;3.00;0.33;;;;;10.30;100.00;99679.06;5079344;27;45277;-77
2022/11/23 00:33:03;;;;;;;;;0.00;0.00;;;;;10.30;100.00;99675.56;5076104;27;54599;-77
2022/11/23 00:35:29;;;;;;;;;8.00;2.00;;;;;10.25;100.00;99659.75;5062558;27;45645;-76
2022/11/23 00:37:54;;;;;;;;;2.00;2.00;;;;;10.29;100.00;99664.13;5078770;27;60037;-77
2022/11/23 00:40:19;;;;;;;;;2.00;1.00;;;;;10.31;100.00;99674.66;5090794;27;61934;-78
2022/11/23 00:42:45;;;;;;;;;3.33;1.00;;;;;10.27;100.00;99657.97;5058686;28;53627;-77
2022/11/23 00:45:10;;;;;;;;;3.00;1.33;;;;;10.28;100.00;99670.31;5078953;27;45521;-77
2022/11/23 00:47:36;;;;;;;;;3.00;1.00;;;;;10.27;100.00;99665.88;5062015;27;48113;-78
2022/11/23 00:50:01;;;;;;;;;1.33;1.00;;;;;10.26;100.00;99656.22;5078935;27;46329;-77
2022/11/23 00:52:27;;;;;;;;;0.00;0.00;;;;;10.28;100.00;99662.38;5078934;27;45411;-77
2022/11/23 00:54:52;;;;;;;;;2.00;1.00;;;;;10.31;100.00;99653.56;5091684;27;46587;-77
2022/11/23 00:57:17;;;;;;;;;4.67;1.00;;;;;10.33;100.00;99651.78;5093311;27;46925;-78
2022/11/23 00:59:43;;;;;;;;;1.00;1.00;;;;;10.32;100.00;99650.91;5092415;27;45396;-77
2022/11/23 01:02:08;;;;;;;;;2.00;0.67;;;;;10.31;100.00;99648.28;5094920;27;45315;-77
2022/11/23 01:04:34;;;;;;;;;1.00;1.00;;;;;10.32;100.00;99648.25;5072782;28;45577;-77
2022/11/23 01:06:59;;;;;;;;;3.00;0.00;;;;;10.30;100.00;99650.03;5091625;27;45772;-76
2022/11/23 01:09:25;;;;;;;;;0.67;0.67;;;;;10.31;100.00;99656.19;5077190;27;45522;-76
2022/11/23 01:11:52;;;;;;;;;4.00;1.67;;;;;10.30;100.00;99651.81;5074376;28;45466;-77
2022/11/23 01:14:18;;;;;;;;;1.67;1.00;;;;;10.25;100.00;99643.94;5063980;27;45445;-77
2022/11/23 01:16:44;;;;;;;;;7.33;1.00;;;;;10.25;100.00;99650.97;5077395;27;47071;-75
2022/11/23 01:19:11;;;;;;;;;2.00;1.33;;;;;10.23;100.00;99645.69;5059775;27;45445;-76
2022/11/23 01:21:37;;;;;;;;;1.33;1.33;;;;;10.21;100.00;99640.38;5077460;27;45327;-75
2022/11/23 01:24:08;;;;;;;;;4.00;1.67;;;;;10.16;100.00;99631.63;5077260;27;45212;-76
2022/11/23 01:26:34;;;;;;;;;1.00;1.00;;;;;10.15;100.00;99627.25;5094729;27;47073;-76
2022/11/23 01:28:59;;;;;;;;;2.67;1.00;;;;;10.12;100.00;99622.00;5096818;27;45354;-75
2022/11/23 01:31:25;;;;;;;;;4.00;1.00;;;;;10.11;100.00;99611.44;5059767;27;45535;-77
2022/11/23 01:33:58;;;;;;;;;1.67;1.00;;;;;10.11;100.00;99612.31;5078575;27;45401;-76
2022/11/23 01:36:26;;;;;;;;;3.00;1.00;;;;;10.08;100.00;99600.94;5077807;27;46700;-76
2022/11/23 01:38:52;;;;;;;;;4.33;0.00;;;;;10.10;100.00;99607.06;5078412;27;45610;-76
2022/11/23 01:41:20;;;;;;;;;2.00;0.33;;;;;10.04;100.00;99597.44;5078487;27;45284;-75
2022/11/23 01:43:45;;;;;;;;;2.00;1.00;;;;;10.03;100.00;99594.81;5095158;27;45481;-77
2022/11/23 01:46:11;;;;;;;;;0.00;0.00;;;;;10.05;100.00;99598.31;5087113;27;46411;-76
2022/11/23 01:48:36;;;;;;;;;0.67;0.67;;;;;10.04;100.00;99596.56;5076133;27;45379;-76
2022/11/23 01:51:04;;;;;;;;;1.00;1.00;;;;;10.00;100.00;99589.53;5096299;27;45397;-76
2022/11/23 01:53:30;;;;;;;;;5.00;2.33;;;;;10.01;100.00;99593.94;5080726;27;45617;-76
2022/11/23 01:55:59;;;;;;;;;5.33;1.67;;;;;10.00;100.00;99592.19;5081141;27;45894;-76
2022/11/23 01:58:26;;;;;;;;;1.75;1.75;;;;;10.00;100.00;99597.47;5080893;27;45556;-75
2022/11/23 02:00:52;;;;;;;;;4.00;1.00;;;;;9.97;100.00;99582.56;5077430;28;45617;-76
2022/11/23 02:03:18;;;;;;;;;2.67;2.33;;;;;9.96;100.00;99586.94;5095477;27;45486;-76
2022/11/23 02:05:47;;;;;;;;;3.00;1.00;;;;;10.00;100.00;99594.81;5095041;27;45686;-76
2022/11/23 02:08:15;;;;;;;;;7.75;2.50;;;;;9.98;100.00;99586.94;5092632;27;45474;-76
2022/11/23 02:10:40;;;;;;;;;1.33;1.00;;;;;9.98;100.00;99598.34;5080650;27;45823;-76
2022/11/23 02:13:09;;;;;;;;;2.33;1.00;;;;;9.98;100.00;99594.84;5098462;27;45331;-77
2022/11/23 02:15:34;;;;;;;;;2.25;1.75;;;;;9.94;100.00;99591.34;5080584;27;46671;-76
2022/11/23 02:18:03;;;;;;;;;0.00;0.00;;;;;9.89;100.00;99579.94;5098358;27;45610;-76
2022/11/23 02:20:28;;;;;;;;;2.00;1.00;;;;;9.89;100.00;99585.22;5097157;27;45425;-76
2022/11/23 02:23:03;;;;;;;;;1.67;1.00;;;;;9.88;100.00;99582.59;5097434;27;45485;-77
2022/11/23 02:25:46;;;;;;;;;4.00;1.00;;;;;9.90;100.00;99588.72;5098660;27;46891;-75
2022/11/23 02:28:18;;;;;;;;;7.25;1.25;;;;;9.88;100.00;99586.09;5098545;27;45157;-76
2022/11/23 02:30:47;;;;;;;;;5.25;2.00;;;;;9.86;100.00;99582.63;5079447;27;45427;-77
2022/11/23 02:33:13;;;;;;;;;1.00;1.00;;;;;9.84;100.00;99584.38;5097331;27;45493;-77
2022/11/23 02:35:53;;;;;;;;;9.50;3.00;;;;;9.83;100.00;99577.34;5098274;27;45750;-77
2022/11/23 02:38:20;;;;;;;;;3.67;2.00;;;;;9.87;100.00;99588.75;5079657;27;45491;-75
2022/11/23 02:40:45;;;;;;;;;5.50;2.50;;;;;9.86;100.00;99584.38;5080397;27;45264;-75
2022/11/23 02:43:11;;;;;;;;;6.00;2.00;;;;;9.83;100.00;99573.84;5060514;27;45589;-76
2022/11/23 02:45:49;;;;;;;;;7.25;2.00;;;;;9.87;100.00;99578.22;5093882;27;62858;-76
2022/11/23 02:48:16;;;;;;;;;2.00;2.00;;;;;9.87;100.00;99576.47;5098426;27;45326;-76
2022/11/23 02:50:41;;;;;;;;;4.00;1.00;;;;;9.89;100.00;99565.88;5097793;27;45310;-76
2022/11/23 02:53:07;;;;;;;;;2.67;0.00;;;;;9.91;100.00;99575.56;5094159;27;45362;-76
2022/11/23 02:55:32;;;;;;;;;2.00;2.00;;;;;9.93;100.00;99562.34;5071138;28;45514;-76
2022/11/23 02:57:57;;;;;;;;;3.33;2.33;;;;;9.96;100.00;99565.84;5095236;27;45458;-77
2022/11/23 03:00:23;;;;;;;;;2.25;1.50;;;;;9.98;100.00;99564.06;5097496;27;58983;-76
2022/11/23 03:02:48;;;;;;;;;4.00;1.67;;;;;9.99;100.00;99559.66;5077491;27;45513;-76
2022/11/23 03:05:13;;;;;;;;;2.67;1.00;;;;;10.04;100.00;99562.28;5077388;27;47422;-76
2022/11/23 03:07:39;;;;;;;;;2.00;2.00;;;;;10.06;100.00;99549.94;5080109;27;45522;-77
2022/11/23 03:10:05;;;;;;;;;2.67;2.00;;;;;10.08;100.00;99554.34;5062354;27;45321;-77
2022/11/23 03:12:30;;;;;;;;;3.00;2.00;;;;;10.06;100.00;99542.03;5091855;27;45412;-76
2022/11/23 03:14:56;;;;;;;;;3.00;3.00;;;;;10.08;100.00;99542.91;5079216;27;45378;-76
2022/11/23 03:17:21;;;;;;;;;2.67;1.33;;;;;10.07;100.00;99541.16;5093651;27;45417;-76
2022/11/23 03:19:46;;;;;;;;;3.00;2.00;;;;;10.08;100.00;99532.38;5078993;27;45494;-75
2022/11/23 03:22:12;;;;;;;;;2.00;2.00;;;;;10.05;100.00;99532.38;5094483;27;45489;-76
2022/11/23 03:24:37;;;;;;;;;3.75;2.00;;;;;10.01;100.00;99526.25;5096626;27;48148;-76
2022/11/23 03:27:03;;;;;;;;;3.00;3.00;;;;;9.97;100.00;99520.13;5098027;27;45268;-76
2022/11/23 03:29:28;;;;;;;;;1.67;1.00;;;;;9.94;100.00;99520.16;5079566;27;45392;-77
2022/11/23 03:31:54;;;;;;;;;2.25;2.25;;;;;9.91;100.00;99520.19;5098995;27;45776;-76
2022/11/23 03:34:19;;;;;;;;;1.75;1.25;;;;;9.92;100.00;99518.44;5094060;27;46732;-76
2022/11/23 03:36:45;;;;;;;;;1.50;1.00;;;;;9.90;100.00;99518.41;5080248;27;45345;-75
2022/11/23 03:39:10;;;;;;;;;1.33;1.33;;;;;9.91;100.00;99528.09;5097200;27;45314;-76
2022/11/23 03:41:36;;;;;;;;;1.00;1.00;;;;;9.92;100.00;99516.66;5098469;27;45273;-76
2022/11/23 03:44:01;;;;;;;;;2.00;0.33;;;;;9.91;100.00;99507.00;5079836;27;45550;-77
2022/11/23 03:46:27;;;;;;;;;3.00;2.00;;;;;10.03;100.00;99505.16;5095639;27;45279;-77
2022/11/23 03:48:52;;;;;;;;;2.00;2.00;;;;;10.08;100.00;99506.00;5079425;27;45341;-76
2022/11/23 03:51:17;;;;;;;;;3.00;2.00;;;;;10.09;100.00;99498.06;5097304;27;45521;-76
2022/11/23 03:53:43;;;;;;;;;3.50;2.00;;;;;10.13;100.00;99501.56;5092118;27;53523;-76
2022/11/23 03:56:08;;;;;;;;;2.00;1.00;;;;;10.18;100.00;99505.91;5095219;27;46285;-77
2022/11/23 03:58:34;;;;;;;;;2.00;2.00;;;;;10.22;100.00;99504.97;5095868;27;45401;-76
2022/11/23 04:01:00;;;;;;;;;6.00;3.00;;;;;10.28;100.00;99500.56;5094740;27;45476;-75
2022/11/23 04:03:25;;;;;;;;;5.50;2.75;;;;;10.33;100.00;99496.09;5096752;27;47643;-77
2022/11/23 04:05:51;;;;;;;;;6.50;1.75;;;;;10.35;100.00;99497.84;5060085;27;50095;-77
2022/11/23 04:08:16;;;;;;;;;2.00;2.00;;;;;10.38;100.00;99492.53;5097392;27;45508;-76
2022/11/23 04:10:41;;;;;;;;;3.33;2.00;;;;;10.40;100.00;99488.13;5096662;27;47435;-77
2022/11/23 04:13:07;;;;;;;;;2.75;2.75;;;;;10.44;100.00;99487.22;5074369;28;51329;-76
2022/11/23 04:15:32;;;;;;;;;4.00;2.50;;;;;10.46;100.00;99484.56;5077952;27;45322;-76
2022/11/23 04:17:57;;;;;;;;;1.67;1.67;;;;;10.50;100.00;99494.19;5096424;27;45354;-78
2022/11/23 04:20:23;;;;;;;;;4.75;2.00;;;;;10.52;100.00;99491.53;5087595;27;45581;-76
2022/11/23 04:22:48;;;;;;;;;2.75;1.75;;;;;10.51;100.00;99489.78;5096629;27;51433;-76
2022/11/23 04:25:13;;;;;;;;;4.00;3.00;;;;;10.51;100.00;99495.94;5096832;27;45469;-77
2022/11/23 04:27:39;;;;;;;;;8.75;3.75;;;;;10.53;100.00;99493.28;5078961;27;45413;-77
2022/11/23 04:30:05;;;;;;;;;2.00;2.00;;;;;10.52;100.00;99492.41;5096801;27;45331;-76
2022/11/23 04:32:30;;;;;;;;;6.00;2.00;;;;;10.53;100.00;99485.38;5095601;27;45662;-78
2022/11/23 04:34:55;;;;;;;;;3.00;2.00;;;;;10.56;100.00;99480.06;5061715;27;46096;-76
2022/11/23 04:37:21;;;;;;;;;6.00;2.00;;;;;10.54;100.00;99477.41;5096490;27;45442;-76
2022/11/23 04:39:46;;;;;;;;;3.50;2.00;;;;;10.56;100.00;99477.44;5088405;27;55155;-77
2022/11/23 04:42:12;;;;;;;;;3.25;2.25;;;;;10.56;100.00;99473.03;5096190;27;46020;-76
2022/11/23 04:44:37;;;;;;;;;3.00;3.00;;;;;10.54;100.00;99469.50;5061503;27;45683;-77
2022/11/23 04:47:03;;;;;;;;;2.00;2.00;;;;;10.59;100.00;99469.47;5096634;27;48814;-77
2022/11/23 04:49:28;;;;;;;;;3.33;2.00;;;;;10.59;100.00;99462.41;5096699;27;45252;-76
2022/11/23 04:51:53;;;;;;;;;3.50;3.00;;;;;10.62;100.00;99456.25;5095642;27;65936;-76
2022/11/23 04:54:19;;;;;;;;;2.00;2.00;;;;;10.61;100.00;99457.13;5076690;27;50535;-76
2022/11/23 04:56:44;;;;;;;;;3.00;2.00;;;;;10.62;100.00;99465.03;5095933;27;53934;-76
2022/11/23 04:59:09;;;;;;;;;2.00;2.00;;;;;10.63;100.00;99465.91;5094492;27;49784;-76
2022/11/23 05:01:35;;;;;;;;;3.00;3.00;;;;;10.62;100.00;99449.19;5077553;27;52000;-76
2022/11/23 05:04:00;;;;;;;;;2.00;2.00;;;;;10.62;100.00;99440.41;5094255;27;52116;-77
2022/11/23 05:06:25;;;;;;;;;3.00;2.00;;;;;10.65;100.00;99440.34;5075028;27;54205;-77
2022/11/23 05:08:51;;;;;;;;;0.00;0.00;;;;;10.66;100.00;99447.41;5096651;27;45524;-75
2022/11/23 05:11:16;;;;;;;;;3.00;2.00;;;;;10.64;100.00;99443.88;5094470;27;51698;-77
2022/11/23 05:13:41;;;;;;;;;6.00;3.00;;;;;10.59;100.00;99427.22;5096641;27;45197;-77
2022/11/23 05:16:07;;;;;;;;;3.00;3.00;;;;;10.61;100.00;99438.66;5095722;27;46304;-77
2022/11/23 05:18:32;;;;;;;;;8.00;3.75;;;;;10.60;100.00;99444.81;5074916;28;45269;-77
2022/11/23 05:20:58;;;;;;;;;8.00;3.00;;;;;10.57;100.00;99447.50;5095283;27;46540;-77
2022/11/23 05:23:23;;;;;;;;;5.75;4.00;;;;;10.56;100.00;99451.91;5095181;27;45296;-76
2022/11/23 05:25:48;;;;;;;;;6.75;4.75;;;;;10.57;100.00;99447.50;5078600;27;45320;-77
2022/11/23 05:28:17;;;;;;;;;4.25;4.00;;;;;10.58;100.00;99457.16;5077305;27;45604;-77
2022/11/23 05:30:42;;;;;;;;;3.75;3.00;;;;;10.57;100.00;99469.47;5092020;27;46675;-77
2022/11/23 05:33:07;;;;;;;;;10.00;3.00;;;;;10.57;100.00;99471.25;5077305;27;45480;-76
2022/11/23 05:35:34;;;;;;;;;3.00;3.00;;;;;10.57;100.00;99464.22;5062646;27;45358;-76
2022/11/23 05:37:59;;;;;;;;;2.75;2.75;;;;;10.57;100.00;99472.13;5092261;27;45629;-76
2022/11/23 05:40:25;;;;;;;;;2.33;2.33;;;;;10.56;100.00;99462.47;5090622;27;45978;-76
2022/11/23 05:42:54;;;;;;;;;3.00;3.00;;;;;10.56;100.00;99466.88;5095970;27;45468;-75
2022/11/23 05:45:20;;;;;;;;;3.25;2.75;;;;;10.56;100.00;99467.75;5073418;27;46472;-75
2022/11/23 05:47:50;;;;;;;;;3.75;3.00;;;;;10.57;100.00;99456.28;5092756;27;45456;-73
2022/11/23 05:50:15;;;;;;;;;7.00;3.00;;;;;10.57;100.00;99458.94;5095101;27;45702;-76
2022/11/23 05:52:41;;;;;;;;;1.67;1.33;;;;;10.61;100.00;99465.94;5094373;27;45508;-75
2022/11/23 05:55:06;;;;;;;;;3.67;2.67;;;;;10.61;100.00;99457.13;5093511;27;49135;-77
2022/11/23 05:57:32;;;;;;;;;2.33;2.00;;;;;10.61;100.00;99455.38;5091715;27;45861;-77
2022/11/23 05:59:57;;;;;;;;;2.00;2.00;;;;;10.63;100.00;99450.94;5089939;27;46146;-75
2022/11/23 06:02:23;;;;;;;;;6.75;2.00;;;;;10.65;100.00;99443.00;5088450;27;50152;-77
2022/11/23 06:04:48;;;;;;;;;4.25;3.00;;;;;10.64;100.00;99443.88;5064253;27;45481;-77
2022/11/23 06:07:13;;;;;;;;;3.00;2.00;;;;;10.62;100.00;99432.47;5094306;27;45541;-77
2022/11/23 06:09:39;;;;;;;;;1.33;1.00;;;;;10.67;100.00;99439.47;5093034;27;50334;-76
2022/11/23 06:12:04;;;;;;;;;3.00;2.00;;;;;10.69;100.00;99435.03;5072194;28;46460;-75
2022/11/23 06:14:30;;;;;;;;;6.00;3.00;;;;;10.70;100.00;99431.47;5091217;27;45571;-76
2022/11/23 06:16:55;;;;;;;;;2.67;2.67;;;;;10.68;100.00;99429.78;5077319;27;45501;-76
2022/11/23 06:19:21;;;;;;;;;6.67;2.00;;;;;10.68;100.00;99433.28;5092574;27;54305;-76
2022/11/23 06:21:46;;;;;;;;;3.00;3.00;;;;;10.70;100.00;99430.63;5094861;27;45329;-78
2022/11/23 06:24:11;;;;;;;;;7.33;3.67;;;;;10.71;100.00;99433.25;5093350;27;53584;-76
2022/11/23 06:26:37;;;;;;;;;4.00;3.00;;;;;10.70;100.00;99426.19;5093031;27;45555;-77
2022/11/23 06:29:02;;;;;;;;;4.00;2.67;;;;;10.70;100.00;99426.19;5094297;27;46319;-77
2022/11/23 06:31:27;;;;;;;;;2.67;1.00;;;;;10.69;100.00;99427.09;5077025;27;45406;-76
2022/11/23 06:33:53;;;;;;;;;3.67;3.67;;;;;10.72;100.00;99424.44;5060074;27;45450;-77
2022/11/23 06:36:19;;;;;;;;;3.50;3.00;;;;;10.71;100.00;99425.34;5081827;27;45469;-78
2022/11/23 06:38:44;;;;;;;;;1.67;1.67;;;;;10.72;100.00;99405.09;5072971;27;47417;-75
2022/11/23 06:41:10;;;;;;;;;2.00;2.00;;;;;10.73;100.00;99412.97;5070323;27;51005;-75
2022/11/23 06:43:36;;;;;;;;;3.00;2.00;;;;;10.69;100.00;99400.69;5097600;27;45367;-77
2022/11/23 06:46:04;;;;;;;;;2.33;1.33;;;;;10.70;100.00;99391.00;5095614;27;46940;-78
2022/11/23 06:48:30;;;;;;;;;4.00;4.00;;;;;10.74;100.00;99393.59;5095154;27;45787;-76
2022/11/23 06:50:57;;;;;;;;;5.50;2.50;;;;;10.74;100.00;99387.44;5098309;27;45397;-76
2022/11/23 06:53:23;;;;;;;;;3.67;3.67;;;;;10.77;100.00;99383.91;5080246;27;45508;-76
2022/11/23 06:55:48;;;;;;;;;6.00;6.00;;;;;10.79;100.00;99387.41;5095696;27;45369;-76
2022/11/23 06:58:13;;;;;;;;;4.00;4.00;;;;;10.78;100.00;99383.88;5096710;27;65736;-76
2022/11/23 07:00:39;;;;;;;;;3.00;3.00;;;;;10.80;100.00;99390.00;5097688;27;50284;-75
2022/11/23 07:03:04;;;;;;;;;5.25;4.50;;;;;10.81;100.00;99388.22;5092999;27;45782;-76
2022/11/23 07:05:30;;;;;;;;;4.00;3.00;;;;;10.84;100.00;99380.28;5195307;22;45493;-77
2022/11/23 07:07:55;;;;;;;;;7.67;4.00;;;;;10.85;100.00;99382.91;5072638;28;47510;-78
2022/11/23 07:10:21;;;;;;;;;6.33;3.00;;;;;10.84;100.00;99367.97;5059736;28;45390;-77
2022/11/23 07:12:46;;;;;;;;;4.00;3.00;;;;;10.88;100.00;99374.06;5055214;28;45369;-77
2022/11/23 07:15:12;;;;;;;;;4.00;4.00;;;;;10.87;100.00;99375.84;5055365;28;45524;-76
2022/11/23 07:17:43;;;;;;;;;3.00;3.00;;;;;10.89;100.00;99378.47;5056284;28;45428;-75
2022/11/23 07:20:10;;;;;;;;;3.00;3.00;;;;;10.92;100.00;99375.75;5040279;28;45539;-75
2022/11/23 07:22:36;;;;;;;;;4.33;3.00;;;;;10.93;100.00;99386.31;5038259;28;45478;-77
2022/11/23 07:25:02;;;;;;;;;5.50;3.50;;;;;10.92;100.00;99376.66;5060972;28;46380;-77
2022/11/23 07:27:27;;;;;;;;;3.67;3.67;;;;;10.83;100.00;99387.34;5042703;28;47188;-76
2022/11/23 07:29:52;;;;;;;;;5.33;3.00;;;;;10.70;100.00;99372.53;5044239;28;45585;-75
2022/11/23 07:32:18;;;;;;;;;4.75;3.25;;;;;10.61;100.00;99389.38;5043937;28;51182;-74
2022/11/23 07:34:43;;;;;;;;;4.67;3.33;;;;;10.54;100.00;99394.75;5066499;27;57214;-73
2022/11/23 07:37:08;;;;;;;;;4.00;2.00;;;;;10.50;100.00;99396.56;5049667;28;62547;-75
2022/11/23 07:39:34;;;;;;;;;2.25;2.25;;;;;10.41;100.00;99394.88;5050665;28;45813;-75
2022/11/23 07:41:59;;;;;;;;;6.00;3.00;;;;;10.39;100.00;99394.03;5052522;28;57913;-75
2022/11/23 07:44:24;;;;;;;;;2.33;2.33;;;;;10.36;100.00;99399.34;5051975;28;45333;-75
2022/11/23 07:46:53;;;;;;;;;3.50;2.00;;;;;10.34;100.00;99387.94;5050279;28;55364;-77
2022/11/23 07:49:18;;;;;;;;;4.00;3.00;;;;;10.39;100.00;99396.69;5054555;28;45536;-76
2022/11/23 07:51:43;;;;;;;;;2.00;2.00;;;;;10.43;100.00;99382.53;5047132;28;60121;-76
2022/11/23 07:54:09;;;;;;;;;2.00;2.00;;;;;10.51;100.00;99384.25;5051055;28;45561;-75
2022/11/23 07:56:34;;;;;;;;;3.33;2.00;;;;;10.60;100.00;99389.38;5048854;28;54158;-77
2022/11/23 07:58:59;;;;;;;;;1.33;1.00;;;;;10.67;100.00;99391.94;5050616;28;63734;-76
2022/11/23 08:01:25;;;;;;;;;1.33;1.33;;;;;10.74;100.00;99384.81;5050827;28;53483;-77
2022/11/23 08:03:50;;;;;;;;;2.00;2.00;;;;;10.77;100.00;99395.34;5053382;28;45689;-77
2022/11/23 08:06:16;;;;;;;;;1.33;1.00;;;;;10.74;100.00;99384.81;5055533;28;46451;-76
2022/11/23 08:08:41;;;;;;;;;1.33;1.33;;;;;10.78;100.00;99394.44;5069140;27;48318;-78
2022/11/23 08:11:08;;;;;;;;;1.00;1.00;;;;;10.78;100.00;99389.16;5071830;27;45651;-77
2022/11/23 08:13:33;;;;;;;;;1.00;1.00;;;;;10.81;100.00;99391.75;5071966;27;45438;-78
2022/11/23 08:15:59;;;;;;;;;3.67;2.00;;;;;10.80;100.00;99390.00;5047264;28;45991;-79
2022/11/23 08:18:25;;;;;;;;;1.00;1.00;;;;;10.82;100.00;99382.09;5066419;27;45532;-77
2022/11/23 08:20:51;;;;;;;;;3.00;2.00;;;;;10.82;100.00;99379.44;5032745;28;46479;-76
2022/11/23 08:23:17;;;;;;;;;2.00;2.00;;;;;10.84;100.00;99380.28;5068013;27;46406;-77
2022/11/23 08:25:42;;;;;;;;;2.33;1.00;;;;;10.82;100.00;99371.53;5057630;28;47531;-78
2022/11/23 08:28:08;;;;;;;;;2.00;2.00;;;;;10.84;100.00;99362.69;5065793;27;46223;-77
2022/11/23 08:30:33;;;;;;;;;2.67;2.67;;;;;10.90;100.00;99352.03;5046040;28;45658;-76
2022/11/23 08:33:05;;;;;;;;;3.00;1.00;;;;;10.95;100.00;99349.31;5045485;28;45477;-76
2022/11/23 08:35:38;;;;;;;;;1.00;1.00;;;;;10.98;100.00;99346.66;5046424;28;47035;-77
2022/11/23 08:38:04;;;;;;;;;1.00;1.00;;;;;11.01;100.00;99341.31;5053687;28;45969;-78
2022/11/23 08:40:30;;;;;;;;;1.33;1.33;;;;;11.05;100.00;99327.16;5046491;28;45582;-77
2022/11/23 08:42:55;;;;;;;;;1.00;1.00;;;;;11.09;100.00;99320.06;5045347;28;45573;-77
2022/11/23 08:45:21;;;;;;;;;1.67;1.00;;;;;11.14;100.00;99308.53;5051837;28;45869;-77
2022/11/23 08:47:46;;;;;;;;;3.00;2.00;;;;;11.20;100.00;99297.88;5050285;28;45524;-78
2022/11/23 08:50:12;;;;;;;;;2.00;1.00;;;;;11.24;100.00;99278.44;5051227;28;46406;-76
2022/11/23 08:52:37;;;;;;;;;2.00;2.00;;;;;11.26;100.00;99281.91;5065290;27;45715;-75
2022/11/23 08:55:03;;;;;;;;;2.00;2.00;;;;;11.28;100.00;99280.09;5050393;28;46048;-76
2022/11/23 08:57:28;;;;;;;;;3.33;2.00;;;;;11.27;100.00;99281.00;5043449;28;45701;-76
2022/11/23 08:59:54;;;;;;;;;4.00;3.00;;;;;11.30;100.00;99290.69;5055158;28;45637;-77
2022/11/23 09:02:19;;;;;;;;;1.00;1.00;;;;;11.27;100.00;99288.06;5065208;28;49592;-76
2022/11/23 09:04:45;;;;;;;;;4.00;2.67;;;;;11.27;100.00;99280.13;5053681;28;45695;-75
2022/11/23 09:07:11;;;;;;;;;1.00;1.00;;;;;11.24;100.00;99282.84;5051615;28;45389;-75
2022/11/23 09:09:36;;;;;;;;;2.33;2.33;;;;;11.22;100.00;99280.22;5052599;28;45484;-76
2022/11/23 09:12:01;;;;;;;;;1.00;1.00;;;;;11.18;100.00;99275.88;5043761;28;45586;-75
2022/11/23 09:14:27;;;;;;;;;1.67;1.67;;;;;11.20;100.00;99273.22;5050664;28;45793;-75
2022/11/23 09:16:55;;;;;;;;;1.00;1.00;;;;;11.21;100.00;99261.75;5054286;28;45881;-75
2022/11/23 09:19:21;;;;;;;;;2.33;1.33;;;;;11.17;100.00;99273.25;5051876;28;53852;-74
2022/11/23 09:21:47;;;;;;;;;3.00;1.00;;;;;11.16;100.00;99267.09;5052863;28;45477;-75
2022/11/23 09:24:12;;;;;;;;;1.00;1.00;;;;;11.14;100.00;99266.28;5067101;27;45878;-76
2022/11/23 09:26:38;;;;;;;;;1.00;1.00;;;;;11.13;100.00;99266.28;5047428;28;45551;-76
2022/11/23 09:29:05;;;;;;;;;1.67;1.67;;;;;11.12;100.00;99256.63;5047082;28;45569;-75
2022/11/23 09:31:30;;;;;;;;;5.00;1.00;;;;;11.10;100.00;99269.00;5067350;28;45553;-75
2022/11/23 09:33:56;;;;;;;;;2.33;1.00;;;;;11.10;100.00;99271.63;5046829;28;64347;-76
2022/11/23 09:36:24;;;;;;;;;2.00;1.00;;;;;11.08;100.00;99268.13;5050226;28;45482;-75
2022/11/23 09:38:50;;;;;;;;;1.33;1.33;;;;;11.10;100.00;99272.50;5051376;28;45517;-75
2022/11/23 09:41:40;;;;;;;;;1.00;1.00;;;;;11.11;100.00;99276.00;5052831;28;45897;-75
2022/11/23 09:44:27;;;;;;;;;3.00;1.00;;;;;11.12;100.00;99269.81;5049892;28;46604;-75
2022/11/23 09:46:58;;;;;;;;;1.00;1.00;;;;;11.13;100.00;99275.09;5055306;28;46272;-75
2022/11/23 09:49:32;;;;;;;;;0.67;0.67;;;;;11.12;100.00;99273.34;5050075;28;45450;-74
2022/11/23 09:51:57;;;;;;;;;1.00;1.00;;;;;11.12;100.00;99252.19;5049957;28;45527;-75
2022/11/23 09:54:43;;;;;;;;;2.00;2.00;;;;;11.15;100.00;99261.84;5050316;28;52973;-75
2022/11/23 09:57:11;;;;;;;;;1.33;1.33;;;;;11.15;100.00;99261.84;5050721;28;45375;-76
2022/11/23 09:59:49;;;;;;;;;1.00;1.00;;;;;11.17;100.00;99265.34;5051271;28;45764;-74
2022/11/23 10:02:21;;;;;;;;;0.33;0.33;;;;;11.15;100.00;99265.38;5049527;28;45387;-75
2022/11/23 10:04:46;;;;;;;;;1.00;1.00;;;;;11.13;100.00;99263.63;5048699;28;46742;-75
2022/11/23 10:07:24;;;;;;;;;3.00;1.67;;;;;11.13;100.00;99261.00;5043663;28;56431;-74
2022/11/23 10:10:26;;;;;;;;;5.33;2.00;;;;;11.08;100.00;99253.19;5049102;28;45661;-74
2022/11/23 10:13:19;;;;;;;;;1.00;1.00;;;;;11.07;100.00;99261.97;5047934;28;45397;-75
2022/11/23 10:16:00;;;;;;;;;1.00;1.00;;;;;11.07;100.00;99255.81;5051439;28;46854;-74
2022/11/23 10:18:43;;;;;;;;;3.00;1.33;;;;;11.06;100.00;99270.78;5055321;28;45480;-75
2022/11/23 10:21:30;;;;;;;;;1.00;1.00;;;;;11.06;100.00;99272.56;5054849;28;45453;-75
2022/11/23 10:24:02;;;;;;;;;2.00;0.67;;;;;11.05;100.00;99258.50;5069383;27;45481;-76
2022/11/23 10:26:31;;;;;;;;;0.00;0.00;;;;;11.05;100.00;99257.63;5051569;28;46490;-75
2022/11/23 10:29:06;;;;;;;;;6.33;1.00;;;;;11.03;100.00;99260.31;5059673;28;45493;-77
2022/11/23 10:31:31;;;;;;;;;0.33;0.33;;;;;11.04;100.00;99277.00;5060510;28;45697;-75
2022/11/23 10:34:16;;;;;;;;;3.00;1.00;;;;;11.05;100.00;99284.91;5060653;28;55448;-73
2022/11/23 10:36:42;;;;;;;;;1.33;1.33;;;;;11.03;100.00;99286.72;5069079;28;46545;-73
2022/11/23 10:39:18;;;;;;;;;2.00;2.00;;;;;11.05;100.00;99307.81;5074359;27;45423;-78
2022/11/23 10:41:45;;;;;;;;;3.00;3.00;;;;;11.04;100.00;99298.16;5061894;27;45453;-76
2022/11/23 10:44:16;;;;;;;;;1.00;1.00;;;;;11.02;100.00;99292.88;5038116;28;45357;-77
2022/11/23 10:46:42;;;;;;;;;1.33;1.33;;;;;11.03;100.00;99299.91;5056507;28;46806;-76
2022/11/23 10:49:23;;;;;;;;;1.00;0.00;;;;;11.04;100.00;99291.09;5066139;28;45407;-75
2022/11/23 10:52:02;;;;;;;;;0.00;0.00;;;;;11.04;100.00;99291.09;5081009;27;45233;-76
2022/11/23 10:54:45;;;;;;;;;2.33;1.00;;;;;11.09;100.00;99294.53;5080620;27;45411;-77
2022/11/23 10:57:26;;;;;;;;;0.33;0.33;;;;;11.15;100.00;99299.72;5051827;28;47845;-75
2022/11/23 11:00:13;;;;;;;;;1.00;1.00;;;;;11.19;100.00;99295.25;5054684;28;45624;-77
2022/11/23 11:02:45;;;;;;;;;0.00;0.00;;;;;11.26;100.00;99308.34;5057113;28;45367;-75
2022/11/23 11:05:13;;;;;;;;;0.00;0.00;;;;;11.34;100.00;99299.41;5057274;28;45516;-75
2022/11/23 11:07:39;;;;;;;;;0.33;0.33;;;;;11.42;100.00;99303.66;5056296;28;48634;-75
2022/11/23 11:10:05;;;;;;;;;0.33;0.33;;;;;11.50;100.00;99300.88;5057327;28;45427;-76
2022/11/23 11:12:33;;;;;;;;;6.00;4.67;;;;;11.59;100.00;99295.44;5076290;27;45614;-77
2022/11/23 11:15:01;;;;;;;;;3.00;1.00;;;;;11.67;100.00;99308.53;5056567;28;45466;-76
2022/11/23 11:17:33;;;;;;;;;1.00;1.00;;;;;11.71;100.00;99323.44;5056105;28;46191;-77
2022/11/23 11:20:00;;;;;;;;;0.00;0.00;;;;;11.74;100.00;99316.31;5067702;27;45484;-76
2022/11/23 11:22:34;;;;;;;;;0.00;0.00;;;;;11.76;100.00;99313.63;5045970;28;45530;-76
2022/11/23 11:25:04;;;;;;;;;0.00;0.00;;;;;11.82;100.00;99324.13;5055996;27;45462;-73
2022/11/23 11:27:31;;;;;;;;;1.00;1.00;;;;;11.86;100.00;99322.31;5037160;28;47560;-75